sensor_id;sensor_type;location;lat;lon;timestamp;temperature;humidity
19906;DHT22;10115;50.906;4.438;2024-02-21T00:00:46;9.10;99.90
19906;DHT22;10115;50.906;4.438;2024-02-21T00:03:12;9.10;99.90
19906;DHT22;10115;50.906;4.438;2024-02-21T00:05:37;9.10;99.90
19906;DHT22;10115;50.906;4.438;2024-02-21T00:08:03;9.00;99.90
19906;DHT22;10115;50.906;4.438;2024-02-21T00:10:29;9.00;99.90
19906;DHT22;10115;50.906;4.438;2024-02-21T00:12:57;9.00;99.90
19906;DHT22;10115;50.906;4.438;2024-02-21T00:15:22;9.10;99.90
19906;DHT22;10115;50.906;4.438;2024-02-21T00:17:48;9.10;99.90
19906;DHT22;10115;50.906;4.438;2024-02-21T00:20:14;9.00;99.90
19906;DHT22;10115;50.906;4.438;2024-02-21T00:22:40;9.00;99.90
19906;DHT22;10115;50.906;4.438;2024-02-21T00:25:07;9.10;99.90
19906;DHT22;10115;50.906;4.438;2024-02-21T00:27:33;9.10;99.90
19906;DHT22;10115;50.906;4.438;2024-02-21T00:29:59;9.20;99.90
19906;DHT22;10115;50.906;4.438;2024-02-21T00:32:24;9.20;99.90
19906;DHT22;10115;50.906;4.438;2024-02-21T00:34:50;9.20;99.90
19906;DHT22;10115;50.906;4.438;2024-02-21T00:37:15;9.20;99.90
19906;DHT22;10115;50.906;4.438;2024-02-21T00:39:41;9.20;99.90
19906;DHT22;10115;50.906;4.438;2024-02-21T00:42:07;9.20;99.90
19906;DHT22;10115;50.906;4.438;2024-02-21T00:44:33;9.20;99.90
19906;DHT22;10115;50.906;4.438;2024-02-21T00:46:59;9.10;99.90
19906;DHT22;10115;50.906;4.438;2024-02-21T00:49:24;9.20;99.90
19906;DHT22;10115;50.906;4.438;2024-02-21T00:51:50;9.20;99.90
19906;DHT22;10115;50.906;4.438;2024-02-21T00:54:16;9.20;99.90
19906;DHT22;10115;50.906;4.438;2024-02-21T00:56:42;9.20;99.90
19906;DHT22;10115;50.906;4.438;2024-02-21T00:59:08;9.20;99.90
19906;DHT22;10115;50.906;4.438;2024-02-21T01:01:34;9.20;99.90
19906;DHT22;10115;50.906;4.438;2024-02-21T01:03:59;9.20;99.90
19906;DHT22;10115;50.906;4.438;2024-02-21T01:06:25;9.20;99.90
19906;DHT22;10115;50.906;4.438;2024-02-21T01:08:51;9.30;99.90
19906;DHT22;10115;50.906;4.438;2024-02-21T01:11:17;9.20;99.90
19906;DHT22;10115;50.906;4.438;2024-02-21T01:13:42;9.30;99.90
19906;DHT22;10115;50.906;4.438;2024-02-21T01:16:08;9.30;99.90
19906;DHT22;10115;50.906;4.438;2024-02-21T01:18:34;9.30;99.90
19906;DHT22;10115;50.906;4.438;2024-02-21T01:21:00;9.30;99.90
19906;DHT22;10115;50.906;4.438;2024-02-21T01:23:26;9.40;99.90
19906;DHT22;10115;50.906;4.438;2024-02-21T01:25:51;9.30;99.90
19906;DHT22;10115;50.906;4.438;2024-02-21T01:28:18;9.30;99.90
19906;DHT22;10115;50.906;4.438;2024-02-21T01:30:44;9.30;99.90
19906;DHT22;10115;50.906;4.438;2024-02-21T01:33:09;9.30;99.90
19906;DHT22;10115;50.906;4.438;2024-02-21T01:35:36;9.20;99.90
19906;DHT22;10115;50.906;4.438;2024-02-21T01:38:02;9.40;99.90
19906;DHT22;10115;50.906;4.438;2024-02-21T01:40:28;9.30;99.90
19906;DHT22;10115;50.906;4.438;2024-02-21T01:42:55;9.20;99.90
19906;DHT22;10115;50.906;4.438;2024-02-21T01:45:21;9.10;99.90
19906;DHT22;10115;50.906;4.438;2024-02-21T01:47:48;9.00;99.90
19906;DHT22;10115;50.906;4.438;2024-02-21T01:50:15;9.00;99.90
19906;DHT22;10115;50.906;4.438;2024-02-21T01:52:41;9.00;99.90
19906;DHT22;10115;50.906;4.438;2024-02-21T01:55:10;9.00;99.90
19906;DHT22;10115;50.906;4.438;2024-02-21T01:57:36;8.90;99.90
19906;DHT22;10115;50.906;4.438;2024-02-21T02:00:02;8.90;99.90
19906;DHT22;10115;50.906;4.438;2024-02-21T02:02:28;8.90;99.90
19906;DHT22;10115;50.906;4.438;2024-02-21T02:04:54;9.00;99.90
19906;DHT22;10115;50.906;4.438;2024-02-21T02:07:20;9.00;99.90
19906;DHT22;10115;50.906;4.438;2024-02-21T02:09:46;9.00;99.90
19906;DHT22;10115;50.906;4.438;2024-02-21T02:12:11;9.10;99.90
19906;DHT22;10115;50.906;4.438;2024-02-21T02:14:37;9.10;99.90
19906;DHT22;10115;50.906;4.438;2024-02-21T02:17:03;9.10;99.90
19906;DHT22;10115;50.906;4.438;2024-02-21T02:19:28;9.20;99.90
19906;DHT22;10115;50.906;4.438;2024-02-21T02:22:03;9.30;99.90
19906;DHT22;10115;50.906;4.438;2024-02-21T02:24:32;9.30;99.90
19906;DHT22;10115;50.906;4.438;2024-02-21T02:26:58;9.30;99.90
19906;DHT22;10115;50.906;4.438;2024-02-21T02:29:23;9.20;99.90
19906;DHT22;10115;50.906;4.438;2024-02-21T02:31:49;9.20;99.90
19906;DHT22;10115;50.906;4.438;2024-02-21T02:34:15;9.20;99.90
19906;DHT22;10115;50.906;4.438;2024-02-21T02:36:40;9.20;99.90
19906;DHT22;10115;50.906;4.438;2024-02-21T02:39:06;9.20;99.90
19906;DHT22;10115;50.906;4.438;2024-02-21T02:41:35;9.20;99.90
19906;DHT22;10115;50.906;4.438;2024-02-21T02:44:01;9.30;99.90
19906;DHT22;10115;50.906;4.438;2024-02-21T02:46:27;9.40;99.90
19906;DHT22;10115;50.906;4.438;2024-02-21T02:48:52;9.40;99.90
19906;DHT22;10115;50.906;4.438;2024-02-21T02:51:18;9.40;99.90
19906;DHT22;10115;50.906;4.438;2024-02-21T02:53:43;9.30;99.90
19906;DHT22;10115;50.906;4.438;2024-02-21T02:56:16;9.20;99.90
19906;DHT22;10115;50.906;4.438;2024-02-21T02:58:43;9.10;99.90
19906;DHT22;10115;50.906;4.438;2024-02-21T03:01:09;9.20;99.90
19906;DHT22;10115;50.906;4.438;2024-02-21T03:03:35;9.10;99.90
19906;DHT22;10115;50.906;4.438;2024-02-21T03:06:00;9.10;99.90
19906;DHT22;10115;50.906;4.438;2024-02-21T03:08:26;9.10;99.90
19906;DHT22;10115;50.906;4.438;2024-02-21T03:10:52;9.20;99.90
19906;DHT22;10115;50.906;4.438;2024-02-21T03:13:17;9.20;99.90
19906;DHT22;10115;50.906;4.438;2024-02-21T03:15:43;9.10;99.90
19906;DHT22;10115;50.906;4.438;2024-02-21T03:18:08;9.10;99.90
19906;DHT22;10115;50.906;4.438;2024-02-21T03:20:34;9.10;99.90
19906;DHT22;10115;50.906;4.438;2024-02-21T03:23:00;9.10;99.90
19906;DHT22;10115;50.906;4.438;2024-02-21T03:25:25;9.10;99.90
19906;DHT22;10115;50.906;4.438;2024-02-21T03:27:51;9.20;99.90
19906;DHT22;10115;50.906;4.438;2024-02-21T03:30:17;9.20;99.90
19906;DHT22;10115;50.906;4.438;2024-02-21T03:32:42;9.20;99.90
19906;DHT22;10115;50.906;4.438;2024-02-21T03:35:08;9.30;99.90
19906;DHT22;10115;50.906;4.438;2024-02-21T03:37:34;9.20;99.90
19906;DHT22;10115;50.906;4.438;2024-02-21T03:40:00;9.10;99.90
19906;DHT22;10115;50.906;4.438;2024-02-21T03:42:25;9.20;99.90
19906;DHT22;10115;50.906;4.438;2024-02-21T03:44:51;9.20;99.90
19906;DHT22;10115;50.906;4.438;2024-02-21T03:47:16;9.30;99.90
19906;DHT22;10115;50.906;4.438;2024-02-21T03:49:42;9.20;99.90
19906;DHT22;10115;50.906;4.438;2024-02-21T03:52:08;9.20;99.90
19906;DHT22;10115;50.906;4.438;2024-02-21T03:54:34;9.20;99.90
19906;DHT22;10115;50.906;4.438;2024-02-21T03:57:00;9.10;99.90
19906;DHT22;10115;50.906;4.438;2024-02-21T03:59:25;9.10;99.90
19906;DHT22;10115;50.906;4.438;2024-02-21T04:01:54;9.20;99.90
19906;DHT22;10115;50.906;4.438;2024-02-21T04:04:20;9.10;99.90
19906;DHT22;10115;50.906;4.438;2024-02-21T04:06:49;9.20;99.90
19906;DHT22;10115;50.906;4.438;2024-02-21T04:09:15;9.20;99.90
19906;DHT22;10115;50.906;4.438;2024-02-21T04:11:41;9.20;99.90
19906;DHT22;10115;50.906;4.438;2024-02-21T04:14:07;9.20;99.90
19906;DHT22;10115;50.906;4.438;2024-02-21T04:16:32;9.20;99.90
19906;DHT22;10115;50.906;4.438;2024-02-21T04:18:58;9.30;99.90
19906;DHT22;10115;50.906;4.438;2024-02-21T04:21:24;9.40;99.90
19906;DHT22;10115;50.906;4.438;2024-02-21T04:23:50;9.40;99.90
19906;DHT22;10115;50.906;4.438;2024-02-21T04:26:15;9.50;99.90
19906;DHT22;10115;50.906;4.438;2024-02-21T04:28:41;9.60;99.90
19906;DHT22;10115;50.906;4.438;2024-02-21T04:31:07;9.60;99.90
19906;DHT22;10115;50.906;4.438;2024-02-21T04:33:32;9.70;99.90
19906;DHT22;10115;50.906;4.438;2024-02-21T04:35:58;9.70;99.90
19906;DHT22;10115;50.906;4.438;2024-02-21T04:38:24;9.70;99.90
19906;DHT22;10115;50.906;4.438;2024-02-21T04:40:50;9.50;99.90
19906;DHT22;10115;50.906;4.438;2024-02-21T04:43:16;9.50;99.90
19906;DHT22;10115;50.906;4.438;2024-02-21T04:45:41;9.50;99.90
19906;DHT22;10115;50.906;4.438;2024-02-21T04:48:07;9.60;99.90
19906;DHT22;10115;50.906;4.438;2024-02-21T04:50:33;9.40;99.90
19906;DHT22;10115;50.906;4.438;2024-02-21T04:52:58;9.30;99.90
19906;DHT22;10115;50.906;4.438;2024-02-21T04:55:24;9.40;99.90
19906;DHT22;10115;50.906;4.438;2024-02-21T04:57:50;9.50;99.90
19906;DHT22;10115;50.906;4.438;2024-02-21T05:00:15;9.40;99.90
19906;DHT22;10115;50.906;4.438;2024-02-21T05:02:41;9.20;99.90
19906;DHT22;10115;50.906;4.438;2024-02-21T05:05:07;9.30;99.90
19906;DHT22;10115;50.906;4.438;2024-02-21T05:07:35;9.30;99.90
19906;DHT22;10115;50.906;4.438;2024-02-21T05:10:00;9.40;99.90
19906;DHT22;10115;50.906;4.438;2024-02-21T05:12:26;9.30;99.90
19906;DHT22;10115;50.906;4.438;2024-02-21T05:14:52;9.40;99.90
19906;DHT22;10115;50.906;4.438;2024-02-21T05:17:17;9.40;99.90
19906;DHT22;10115;50.906;4.438;2024-02-21T05:19:43;9.30;99.90
19906;DHT22;10115;50.906;4.438;2024-02-21T05:22:08;9.20;99.90
19906;DHT22;10115;50.906;4.438;2024-02-21T05:24:34;9.20;99.90
19906;DHT22;10115;50.906;4.438;2024-02-21T05:27:00;9.10;99.90
19906;DHT22;10115;50.906;4.438;2024-02-21T05:29:25;9.00;99.90
19906;DHT22;10115;50.906;4.438;2024-02-21T05:34:17;9.30;99.90
19906;DHT22;10115;50.906;4.438;2024-02-21T05:36:43;9.40;99.90
19906;DHT22;10115;50.906;4.438;2024-02-21T05:39:09;9.60;99.90
19906;DHT22;10115;50.906;4.438;2024-02-21T05:41:35;9.50;99.90
19906;DHT22;10115;50.906;4.438;2024-02-21T05:44:01;9.40;99.90
19906;DHT22;10115;50.906;4.438;2024-02-21T05:46:26;9.40;99.90
19906;DHT22;10115;50.906;4.438;2024-02-21T05:48:52;9.40;99.90
19906;DHT22;10115;50.906;4.438;2024-02-21T05:51:18;9.50;99.90
19906;DHT22;10115;50.906;4.438;2024-02-21T05:53:43;9.40;99.90
19906;DHT22;10115;50.906;4.438;2024-02-21T05:56:13;9.40;99.90
19906;DHT22;10115;50.906;4.438;2024-02-21T05:58:39;9.30;99.90
19906;DHT22;10115;50.906;4.438;2024-02-21T06:01:05;9.30;99.90
19906;DHT22;10115;50.906;4.438;2024-02-21T06:03:32;9.40;99.90
19906;DHT22;10115;50.906;4.438;2024-02-21T06:05:58;9.50;99.90
19906;DHT22;10115;50.906;4.438;2024-02-21T06:08:23;9.50;99.90
19906;DHT22;10115;50.906;4.438;2024-02-21T06:10:49;9.40;99.90
19906;DHT22;10115;50.906;4.438;2024-02-21T06:13:17;9.30;99.90
19906;DHT22;10115;50.906;4.438;2024-02-21T06:15:43;9.30;99.90
19906;DHT22;10115;50.906;4.438;2024-02-21T06:18:08;9.20;99.90
19906;DHT22;10115;50.906;4.438;2024-02-21T06:20:34;9.20;99.90
19906;DHT22;10115;50.906;4.438;2024-02-21T06:23:02;9.20;99.90
19906;DHT22;10115;50.906;4.438;2024-02-21T06:25:27;9.20;99.90
19906;DHT22;10115;50.906;4.438;2024-02-21T06:27:53;9.40;99.90
19906;DHT22;10115;50.906;4.438;2024-02-21T06:30:18;9.40;99.90
19906;DHT22;10115;50.906;4.438;2024-02-21T06:32:44;9.40;99.90
19906;DHT22;10115;50.906;4.438;2024-02-21T06:35:10;9.50;99.90
19906;DHT22;10115;50.906;4.438;2024-02-21T06:37:35;9.40;99.90
19906;DHT22;10115;50.906;4.438;2024-02-21T06:40:01;9.40;99.90
19906;DHT22;10115;50.906;4.438;2024-02-21T06:42:29;9.40;99.90
19906;DHT22;10115;50.906;4.438;2024-02-21T06:44:55;9.40;99.90
19906;DHT22;10115;50.906;4.438;2024-02-21T06:47:21;9.40;99.90
19906;DHT22;10115;50.906;4.438;2024-02-21T06:49:50;9.40;99.90
19906;DHT22;10115;50.906;4.438;2024-02-21T06:52:19;9.40;99.90
19906;DHT22;10115;50.906;4.438;2024-02-21T06:54:46;9.30;99.90
19906;DHT22;10115;50.906;4.438;2024-02-21T06:57:13;9.30;99.90
19906;DHT22;10115;50.906;4.438;2024-02-21T06:59:40;9.40;99.90
19906;DHT22;10115;50.906;4.438;2024-02-21T07:02:05;9.50;99.90
19906;DHT22;10115;50.906;4.438;2024-02-21T07:04:31;9.40;99.90
19906;DHT22;10115;50.906;4.438;2024-02-21T07:06:57;9.30;99.90
19906;DHT22;10115;50.906;4.438;2024-02-21T07:09:22;9.40;99.90
19906;DHT22;10115;50.906;4.438;2024-02-21T07:11:48;9.40;99.90
19906;DHT22;10115;50.906;4.438;2024-02-21T07:14:18;9.30;99.90
19906;DHT22;10115;50.906;4.438;2024-02-21T07:16:43;9.20;99.90
19906;DHT22;10115;50.906;4.438;2024-02-21T07:19:09;9.20;99.90
19906;DHT22;10115;50.906;4.438;2024-02-21T07:21:35;9.20;99.90
19906;DHT22;10115;50.906;4.438;2024-02-21T07:24:03;9.10;99.90
19906;DHT22;10115;50.906;4.438;2024-02-21T07:26:31;9.00;99.90
19906;DHT22;10115;50.906;4.438;2024-02-21T07:28:56;9.00;99.90
19906;DHT22;10115;50.906;4.438;2024-02-21T07:31:22;9.10;99.90
19906;DHT22;10115;50.906;4.438;2024-02-21T07:33:47;9.20;99.90
19906;DHT22;10115;50.906;4.438;2024-02-21T07:36:15;9.10;99.90
19906;DHT22;10115;50.906;4.438;2024-02-21T07:38:41;9.30;99.90
19906;DHT22;10115;50.906;4.438;2024-02-21T07:41:07;9.30;99.90
19906;DHT22;10115;50.906;4.438;2024-02-21T07:43:32;9.30;99.90
19906;DHT22;10115;50.906;4.438;2024-02-21T07:45:58;9.40;99.90
19906;DHT22;10115;50.906;4.438;2024-02-21T07:48:24;9.20;99.90
19906;DHT22;10115;50.906;4.438;2024-02-21T07:50:52;9.30;99.90
19906;DHT22;10115;50.906;4.438;2024-02-21T07:53:19;9.30;99.90
19906;DHT22;10115;50.906;4.438;2024-02-21T07:55:45;9.20;99.90
19906;DHT22;10115;50.906;4.438;2024-02-21T07:58:11;9.40;99.90
19906;DHT22;10115;50.906;4.438;2024-02-21T08:00:36;9.50;99.90
19906;DHT22;10115;50.906;4.438;2024-02-21T08:03:02;9.40;99.90
19906;DHT22;10115;50.906;4.438;2024-02-21T08:05:28;9.30;99.90
19906;DHT22;10115;50.906;4.438;2024-02-21T08:07:55;9.40;99.90
19906;DHT22;10115;50.906;4.438;2024-02-21T08:10:21;9.40;99.90
19906;DHT22;10115;50.906;4.438;2024-02-21T08:12:46;9.50;99.90
19906;DHT22;10115;50.906;4.438;2024-02-21T08:15:12;9.60;99.90
19906;DHT22;10115;50.906;4.438;2024-02-21T08:17:38;9.70;99.90
19906;DHT22;10115;50.906;4.438;2024-02-21T08:20:06;9.80;99.90
19906;DHT22;10115;50.906;4.438;2024-02-21T08:22:32;9.80;99.90
19906;DHT22;10115;50.906;4.438;2024-02-21T08:24:58;9.80;99.90
19906;DHT22;10115;50.906;4.438;2024-02-21T08:27:24;9.70;99.90
19906;DHT22;10115;50.906;4.438;2024-02-21T08:29:50;9.70;99.90
19906;DHT22;10115;50.906;4.438;2024-02-21T08:32:16;9.80;99.90
19906;DHT22;10115;50.906;4.438;2024-02-21T08:34:41;9.90;99.90
19906;DHT22;10115;50.906;4.438;2024-02-21T08:37:07;10.00;99.90
19906;DHT22;10115;50.906;4.438;2024-02-21T08:39:33;9.90;99.90
19906;DHT22;10115;50.906;4.438;2024-02-21T08:41:59;9.80;99.90
19906;DHT22;10115;50.906;4.438;2024-02-21T08:44:25;9.90;99.90
19906;DHT22;10115;50.906;4.438;2024-02-21T08:46:51;10.10;99.90
19906;DHT22;10115;50.906;4.438;2024-02-21T08:49:17;10.10;99.90
19906;DHT22;10115;50.906;4.438;2024-02-21T08:51:42;10.10;99.90
19906;DHT22;10115;50.906;4.438;2024-02-21T08:54:08;10.20;99.90
19906;DHT22;10115;50.906;4.438;2024-02-21T08:56:34;10.10;99.90
19906;DHT22;10115;50.906;4.438;2024-02-21T08:59:01;10.10;99.90
19906;DHT22;10115;50.906;4.438;2024-02-21T09:01:27;10.10;99.90
19906;DHT22;10115;50.906;4.438;2024-02-21T09:03:53;10.00;99.90
19906;DHT22;10115;50.906;4.438;2024-02-21T09:06:19;9.80;99.90
19906;DHT22;10115;50.906;4.438;2024-02-21T09:08:45;9.90;99.90
19906;DHT22;10115;50.906;4.438;2024-02-21T09:11:11;10.00;99.90
19906;DHT22;10115;50.906;4.438;2024-02-21T09:13:37;10.10;99.90
19906;DHT22;10115;50.906;4.438;2024-02-21T09:16:03;10.10;99.90
19906;DHT22;10115;50.906;4.438;2024-02-21T09:18:29;10.10;99.90
19906;DHT22;10115;50.906;4.438;2024-02-21T09:20:55;9.90;99.90
19906;DHT22;10115;50.906;4.438;2024-02-21T09:23:24;10.10;99.90
19906;DHT22;10115;50.906;4.438;2024-02-21T09:25:49;10.20;99.90
19906;DHT22;10115;50.906;4.438;2024-02-21T09:28:15;10.20;99.90
19906;DHT22;10115;50.906;4.438;2024-02-21T09:30:41;10.30;99.90
19906;DHT22;10115;50.906;4.438;2024-02-21T09:33:06;10.40;99.90
19906;DHT22;10115;50.906;4.438;2024-02-21T09:35:32;10.50;99.90
19906;DHT22;10115;50.906;4.438;2024-02-21T09:37:59;10.50;99.90
19906;DHT22;10115;50.906;4.438;2024-02-21T09:40:25;10.60;99.90
19906;DHT22;10115;50.906;4.438;2024-02-21T09:42:58;10.60;99.90
19906;DHT22;10115;50.906;4.438;2024-02-21T09:45:27;10.60;99.90
19906;DHT22;10115;50.906;4.438;2024-02-21T09:48:13;10.60;99.90
19906;DHT22;10115;50.906;4.438;2024-02-21T09:50:40;10.60;99.90
19906;DHT22;10115;50.906;4.438;2024-02-21T09:53:09;10.60;99.90
19906;DHT22;10115;50.906;4.438;2024-02-21T09:55:37;10.70;99.90
19906;DHT22;10115;50.906;4.438;2024-02-21T09:58:05;10.80;99.90
19906;DHT22;10115;50.906;4.438;2024-02-21T10:00:32;10.80;99.90
19906;DHT22;10115;50.906;4.438;2024-02-21T10:02:59;11.00;99.90
19906;DHT22;10115;50.906;4.438;2024-02-21T10:05:25;10.90;99.90
19906;DHT22;10115;50.906;4.438;2024-02-21T10:07:51;11.00;99.90
19906;DHT22;10115;50.906;4.438;2024-02-21T10:10:17;10.90;99.90
19906;DHT22;10115;50.906;4.438;2024-02-21T10:12:53;10.90;99.90
19906;DHT22;10115;50.906;4.438;2024-02-21T10:15:24;10.80;99.90
19906;DHT22;10115;50.906;4.438;2024-02-21T10:18:00;10.90;99.90
19906;DHT22;10115;50.906;4.438;2024-02-21T10:20:26;11.00;99.90
19906;DHT22;10115;50.906;4.438;2024-02-21T10:23:05;11.10;99.90
19906;DHT22;10115;50.906;4.438;2024-02-21T10:25:35;11.10;99.90
19906;DHT22;10115;50.906;4.438;2024-02-21T10:28:04;10.90;99.90
19906;DHT22;10115;50.906;4.438;2024-02-21T10:30:29;11.00;99.90
19906;DHT22;10115;50.906;4.438;2024-02-21T10:32:55;11.20;99.90
19906;DHT22;10115;50.906;4.438;2024-02-21T10:35:29;11.30;99.90
19906;DHT22;10115;50.906;4.438;2024-02-21T10:37:56;11.30;99.90
19906;DHT22;10115;50.906;4.438;2024-02-21T10:40:28;11.40;99.90
19906;DHT22;10115;50.906;4.438;2024-02-21T10:43:01;11.40;99.90
19906;DHT22;10115;50.906;4.438;2024-02-21T10:45:36;11.30;99.90
19906;DHT22;10115;50.906;4.438;2024-02-21T10:48:12;11.00;99.90
19906;DHT22;10115;50.906;4.438;2024-02-21T10:51:02;11.00;99.90
19906;DHT22;10115;50.906;4.438;2024-02-21T10:53:47;11.20;99.90
19906;DHT22;10115;50.906;4.438;2024-02-21T10:58:48;11.60;99.90
19906;DHT22;10115;50.906;4.438;2024-02-21T11:01:14;11.50;99.90
19906;DHT22;10115;50.906;4.438;2024-02-21T11:03:42;11.50;99.90
19906;DHT22;10115;50.906;4.438;2024-02-21T11:06:11;11.50;99.90
19906;DHT22;10115;50.906;4.438;2024-02-21T11:08:37;11.50;99.90
19906;DHT22;10115;50.906;4.438;2024-02-21T11:11:04;11.50;99.90
19906;DHT22;10115;50.906;4.438;2024-02-21T11:13:37;11.30;99.90
19906;DHT22;10115;50.906;4.438;2024-02-21T11:16:10;11.40;99.90
19906;DHT22;10115;50.906;4.438;2024-02-21T11:18:40;11.30;99.90
19906;DHT22;10115;50.906;4.438;2024-02-21T11:21:05;11.20;99.90
19906;DHT22;10115;50.906;4.438;2024-02-21T11:23:32;11.30;99.90
19906;DHT22;10115;50.906;4.438;2024-02-21T11:26:10;11.30;99.90
19906;DHT22;10115;50.906;4.438;2024-02-21T11:28:44;11.20;99.90
19906;DHT22;10115;50.906;4.438;2024-02-21T11:31:14;11.20;99.90
19906;DHT22;10115;50.906;4.438;2024-02-21T11:33:40;11.10;99.90
19906;DHT22;10115;50.906;4.438;2024-02-21T11:36:10;11.20;99.90
19906;DHT22;10115;50.906;4.438;2024-02-21T11:38:35;11.20;99.90
19906;DHT22;10115;50.906;4.438;2024-02-21T11:41:01;11.10;99.90
19906;DHT22;10115;50.906;4.438;2024-02-21T11:43:27;11.10;99.90
19906;DHT22;10115;50.906;4.438;2024-02-21T11:46:02;11.00;99.90
19906;DHT22;10115;50.906;4.438;2024-02-21T11:48:30;10.90;99.90
19906;DHT22;10115;50.906;4.438;2024-02-21T11:50:57;10.90;99.90
19906;DHT22;10115;50.906;4.438;2024-02-21T11:53:23;10.70;99.90
19906;DHT22;10115;50.906;4.438;2024-02-21T11:55:49;10.70;99.90
19906;DHT22;10115;50.906;4.438;2024-02-21T11:58:16;10.70;99.90
19906;DHT22;10115;50.906;4.438;2024-02-21T12:00:41;10.90;99.90
19906;DHT22;10115;50.906;4.438;2024-02-21T12:03:07;11.00;99.90
19906;DHT22;10115;50.906;4.438;2024-02-21T12:05:33;10.80;99.90
19906;DHT22;10115;50.906;4.438;2024-02-21T12:08:00;10.80;99.90
19906;DHT22;10115;50.906;4.438;2024-02-21T12:10:26;10.80;99.90
19906;DHT22;10115;50.906;4.438;2024-02-21T12:13:08;10.70;99.90
19906;DHT22;10115;50.906;4.438;2024-02-21T12:15:34;10.60;99.90
19906;DHT22;10115;50.906;4.438;2024-02-21T12:18:00;10.60;99.90
19906;DHT22;10115;50.906;4.438;2024-02-21T12:20:26;10.70;99.90
19906;DHT22;10115;50.906;4.438;2024-02-21T12:22:51;10.60;99.90
19906;DHT22;10115;50.906;4.438;2024-02-21T12:25:21;10.70;99.90
19906;DHT22;10115;50.906;4.438;2024-02-21T12:27:51;10.80;99.90
19906;DHT22;10115;50.906;4.438;2024-02-21T12:30:18;10.70;99.90
19906;DHT22;10115;50.906;4.438;2024-02-21T12:32:45;10.70;99.90
19906;DHT22;10115;50.906;4.438;2024-02-21T12:35:10;10.60;99.90
19906;DHT22;10115;50.906;4.438;2024-02-21T12:37:36;10.50;99.90
19906;DHT22;10115;50.906;4.438;2024-02-21T12:40:05;10.50;99.90
19906;DHT22;10115;50.906;4.438;2024-02-21T12:42:32;10.50;99.90
19906;DHT22;10115;50.906;4.438;2024-02-21T12:44:58;10.50;99.90
19906;DHT22;10115;50.906;4.438;2024-02-21T12:47:24;10.60;99.90
19906;DHT22;10115;50.906;4.438;2024-02-21T12:49:52;10.60;99.90
19906;DHT22;10115;50.906;4.438;2024-02-21T12:52:18;10.80;99.90
19906;DHT22;10115;50.906;4.438;2024-02-21T12:54:43;11.00;99.90
19906;DHT22;10115;50.906;4.438;2024-02-21T12:57:09;11.10;99.90
19906;DHT22;10115;50.906;4.438;2024-02-21T12:59:35;11.00;99.90
19906;DHT22;10115;50.906;4.438;2024-02-21T13:02:00;11.10;99.90
19906;DHT22;10115;50.906;4.438;2024-02-21T13:04:26;11.00;99.90
19906;DHT22;10115;50.906;4.438;2024-02-21T13:06:52;10.80;99.90
19906;DHT22;10115;50.906;4.438;2024-02-21T13:09:17;10.70;99.90
19906;DHT22;10115;50.906;4.438;2024-02-21T13:11:43;10.80;99.90
19906;DHT22;10115;50.906;4.438;2024-02-21T13:14:11;10.80;99.90
19906;DHT22;10115;50.906;4.438;2024-02-21T13:16:37;10.90;99.90
19906;DHT22;10115;50.906;4.438;2024-02-21T13:19:08;10.90;99.90
19906;DHT22;10115;50.906;4.438;2024-02-21T13:21:34;10.80;99.90
19906;DHT22;10115;50.906;4.438;2024-02-21T13:24:01;10.90;99.90
19906;DHT22;10115;50.906;4.438;2024-02-21T13:26:26;11.00;99.90
19906;DHT22;10115;50.906;4.438;2024-02-21T13:28:53;10.90;99.90
19906;DHT22;10115;50.906;4.438;2024-02-21T13:31:18;10.90;99.90
19906;DHT22;10115;50.906;4.438;2024-02-21T13:33:44;10.90;99.90
19906;DHT22;10115;50.906;4.438;2024-02-21T13:36:10;10.90;99.90
19906;DHT22;10115;50.906;4.438;2024-02-21T13:38:36;10.80;99.90
19906;DHT22;10115;50.906;4.438;2024-02-21T13:41:02;10.90;99.90
19906;DHT22;10115;50.906;4.438;2024-02-21T13:43:27;10.80;99.90
19906;DHT22;10115;50.906;4.438;2024-02-21T13:46:00;10.90;99.90
19906;DHT22;10115;50.906;4.438;2024-02-21T13:48:28;11.20;99.90
19906;DHT22;10115;50.906;4.438;2024-02-21T13:50:55;11.20;99.90
19906;DHT22;10115;50.906;4.438;2024-02-21T13:53:20;11.20;99.90
19906;DHT22;10115;50.906;4.438;2024-02-21T13:55:47;11.10;99.90
19906;DHT22;10115;50.906;4.438;2024-02-21T13:58:12;10.90;99.90
19906;DHT22;10115;50.906;4.438;2024-02-21T14:00:38;10.80;99.90
19906;DHT22;10115;50.906;4.438;2024-02-21T14:03:04;10.70;99.90
19906;DHT22;10115;50.906;4.438;2024-02-21T14:05:29;10.70;99.90
19906;DHT22;10115;50.906;4.438;2024-02-21T14:07:55;10.70;99.90
19906;DHT22;10115;50.906;4.438;2024-02-21T14:10:22;10.70;99.90
19906;DHT22;10115;50.906;4.438;2024-02-21T14:12:48;10.60;99.90
19906;DHT22;10115;50.906;4.438;2024-02-21T14:15:14;10.60;99.90
19906;DHT22;10115;50.906;4.438;2024-02-21T14:17:39;10.60;99.90
19906;DHT22;10115;50.906;4.438;2024-02-21T14:20:07;10.60;99.90
19906;DHT22;10115;50.906;4.438;2024-02-21T14:22:33;10.60;99.90
19906;DHT22;10115;50.906;4.438;2024-02-21T14:25:00;10.50;99.90
19906;DHT22;10115;50.906;4.438;2024-02-21T14:27:25;10.60;99.90
19906;DHT22;10115;50.906;4.438;2024-02-21T14:29:51;10.60;99.90
19906;DHT22;10115;50.906;4.438;2024-02-21T14:32:17;10.60;99.90
19906;DHT22;10115;50.906;4.438;2024-02-21T14:34:42;10.40;99.90
19906;DHT22;10115;50.906;4.438;2024-02-21T14:37:08;10.40;99.90
19906;DHT22;10115;50.906;4.438;2024-02-21T14:39:33;10.50;99.90
19906;DHT22;10115;50.906;4.438;2024-02-21T14:42:00;10.30;99.90
19906;DHT22;10115;50.906;4.438;2024-02-21T14:44:26;10.30;99.90
19906;DHT22;10115;50.906;4.438;2024-02-21T14:46:52;10.20;99.90
19906;DHT22;10115;50.906;4.438;2024-02-21T14:49:18;10.20;99.90
19906;DHT22;10115;50.906;4.438;2024-02-21T14:51:44;10.20;99.90
19906;DHT22;10115;50.906;4.438;2024-02-21T14:54:10;10.20;99.90
19906;DHT22;10115;50.906;4.438;2024-02-21T14:56:36;10.10;99.90
19906;DHT22;10115;50.906;4.438;2024-02-21T14:59:02;10.10;99.90
19906;DHT22;10115;50.906;4.438;2024-02-21T15:01:29;10.10;99.90
19906;DHT22;10115;50.906;4.438;2024-02-21T15:03:55;10.10;99.90
19906;DHT22;10115;50.906;4.438;2024-02-21T15:06:20;10.20;99.90
19906;DHT22;10115;50.906;4.438;2024-02-21T15:08:46;10.20;99.90
19906;DHT22;10115;50.906;4.438;2024-02-21T15:11:14;10.20;99.90
19906;DHT22;10115;50.906;4.438;2024-02-21T15:13:39;10.20;99.90
19906;DHT22;10115;50.906;4.438;2024-02-21T15:16:05;10.00;99.90
19906;DHT22;10115;50.906;4.438;2024-02-21T15:18:31;10.00;99.90
19906;DHT22;10115;50.906;4.438;2024-02-21T15:21:03;9.90;99.90
19906;DHT22;10115;50.906;4.438;2024-02-21T15:23:29;9.80;99.90
19906;DHT22;10115;50.906;4.438;2024-02-21T15:25:55;9.80;99.90
19906;DHT22;10115;50.906;4.438;2024-02-21T15:28:20;9.90;99.90
19906;DHT22;10115;50.906;4.438;2024-02-21T15:30:46;9.80;99.90
19906;DHT22;10115;50.906;4.438;2024-02-21T15:33:12;9.80;99.90
19906;DHT22;10115;50.906;4.438;2024-02-21T15:35:37;9.70;99.90
19906;DHT22;10115;50.906;4.438;2024-02-21T15:38:03;9.80;99.90
19906;DHT22;10115;50.906;4.438;2024-02-21T15:40:29;9.80;99.90